sensor_id;sensor_type;location;lat;lon;timestamp;pressure;altitude;pressure_sealevel;temperature;humidity
85752;BME280;76192;39.766;2.716;2024-03-22T00:00:13;101810.89;;;14.52;60.59
85752;BME280;76192;39.766;2.716;2024-03-22T00:02:39;101809.08;;;14.50;60.55
85752;BME280;76192;39.766;2.716;2024-03-22T00:05:05;101799.21;;;14.48;60.19
85752;BME280;76192;39.766;2.716;2024-03-22T00:07:30;101798.07;;;14.45;59.84
85752;BME280;76192;39.766;2.716;2024-03-22T00:09:56;101793.33;;;14.43;59.58
85752;BME280;76192;39.766;2.716;2024-03-22T00:12:22;101793.55;;;14.39;59.37
85752;BME280;76192;39.766;2.716;2024-03-22T00:14:48;101799.81;;;14.38;59.43
85752;BME280;76192;39.766;2.716;2024-03-22T00:17:14;101800.73;;;14.35;60.09
85752;BME280;76192;39.766;2.716;2024-03-22T00:19:39;101809.60;;;14.34;60.82
85752;BME280;76192;39.766;2.716;2024-03-22T00:22:05;101821.56;;;14.33;61.31
85752;BME280;76192;39.766;2.716;2024-03-22T00:24:30;101826.66;;;14.32;61.53
85752;BME280;76192;39.766;2.716;2024-03-22T00:26:56;101831.49;;;14.32;61.73
85752;BME280;76192;39.766;2.716;2024-03-22T00:29:22;101834.69;;;14.35;61.47
85752;BME280;76192;39.766;2.716;2024-03-22T00:31:47;101835.52;;;14.38;60.77
85752;BME280;76192;39.766;2.716;2024-03-22T00:34:13;101842.39;;;14.43;60.32
85752;BME280;76192;39.766;2.716;2024-03-22T00:36:38;101843.13;;;14.48;59.89
85752;BME280;76192;39.766;2.716;2024-03-22T00:39:04;101846.14;;;14.53;59.56
85752;BME280;76192;39.766;2.716;2024-03-22T00:41:30;101843.20;;;14.56;59.39
85752;BME280;76192;39.766;2.716;2024-03-22T00:43:56;101848.12;;;14.59;58.77
85752;BME280;76192;39.766;2.716;2024-03-22T00:46:21;101856.66;;;14.62;59.04
85752;BME280;76192;39.766;2.716;2024-03-22T00:48:47;101855.87;;;14.64;58.99
85752;BME280;76192;39.766;2.716;2024-03-22T00:51:12;101856.69;;;14.63;58.49
85752;BME280;76192;39.766;2.716;2024-03-22T00:53:38;101858.69;;;14.61;58.29
85752;BME280;76192;39.766;2.716;2024-03-22T00:56:04;101854.00;;;14.60;58.14
85752;BME280;76192;39.766;2.716;2024-03-22T00:58:29;101847.04;;;14.58;58.05
85752;BME280;76192;39.766;2.716;2024-03-22T01:00:55;101845.38;;;14.55;58.14
85752;BME280;76192;39.766;2.716;2024-03-22T01:03:21;101846.61;;;14.52;58.11
85752;BME280;76192;39.766;2.716;2024-03-22T01:05:47;101840.29;;;14.49;58.00
85752;BME280;76192;39.766;2.716;2024-03-22T01:08:13;101838.44;;;14.46;58.07
85752;BME280;76192;39.766;2.716;2024-03-22T01:10:39;101837.30;;;14.44;58.00
85752;BME280;76192;39.766;2.716;2024-03-22T01:13:05;101833.45;;;14.43;57.97
85752;BME280;76192;39.766;2.716;2024-03-22T01:15:31;101831.27;;;14.39;58.51
85752;BME280;76192;39.766;2.716;2024-03-22T01:17:57;101824.79;;;14.36;58.95
85752;BME280;76192;39.766;2.716;2024-03-22T01:20:23;101823.08;;;14.32;59.61
85752;BME280;76192;39.766;2.716;2024-03-22T01:22:48;101820.02;;;14.29;59.87
85752;BME280;76192;39.766;2.716;2024-03-22T01:25:14;101815.36;;;14.24;60.38
85752;BME280;76192;39.766;2.716;2024-03-22T01:27:40;101815.92;;;14.22;60.52
85752;BME280;76192;39.766;2.716;2024-03-22T01:30:06;101818.34;;;14.18;60.70
85752;BME280;76192;39.766;2.716;2024-03-22T01:32:32;101812.82;;;14.13;60.89
85752;BME280;76192;39.766;2.716;2024-03-22T01:34:57;101811.80;;;14.09;61.25
85752;BME280;76192;39.766;2.716;2024-03-22T01:37:23;101809.73;;;14.06;61.26
85752;BME280;76192;39.766;2.716;2024-03-22T01:39:48;101805.27;;;14.02;61.24
85752;BME280;76192;39.766;2.716;2024-03-22T01:42:14;101803.02;;;13.98;61.36
85752;BME280;76192;39.766;2.716;2024-03-22T01:44:42;101798.27;;;13.95;61.52
85752;BME280;76192;39.766;2.716;2024-03-22T01:47:07;101796.81;;;13.93;61.62
85752;BME280;76192;39.766;2.716;2024-03-22T01:49:34;101791.37;;;13.90;61.52
85752;BME280;76192;39.766;2.716;2024-03-22T01:52:00;101785.77;;;13.87;61.71
85752;BME280;76192;39.766;2.716;2024-03-22T01:54:25;101776.94;;;13.85;61.75
85752;BME280;76192;39.766;2.716;2024-03-22T01:56:51;101776.56;;;13.84;61.80
85752;BME280;76192;39.766;2.716;2024-03-22T01:59:17;101784.23;;;13.83;61.87
85752;BME280;76192;39.766;2.716;2024-03-22T02:01:43;101791.19;;;13.82;61.86
85752;BME280;76192;39.766;2.716;2024-03-22T02:04:09;101793.82;;;13.80;62.01
85752;BME280;76192;39.766;2.716;2024-03-22T02:06:35;101795.94;;;13.77;62.25
85752;BME280;76192;39.766;2.716;2024-03-22T02:09:01;101803.67;;;13.74;62.10
85752;BME280;76192;39.766;2.716;2024-03-22T02:11:29;101804.16;;;13.70;61.99
85752;BME280;76192;39.766;2.716;2024-03-22T02:13:55;101799.23;;;13.67;62.20
85752;BME280;76192;39.766;2.716;2024-03-22T02:16:21;101795.71;;;13.65;62.16
85752;BME280;76192;39.766;2.716;2024-03-22T02:18:46;101793.73;;;13.63;62.24
85752;BME280;76192;39.766;2.716;2024-03-22T02:21:12;101793.64;;;13.61;61.67
85752;BME280;76192;39.766;2.716;2024-03-22T02:23:39;101797.54;;;13.60;61.53
85752;BME280;76192;39.766;2.716;2024-03-22T02:26:06;101796.61;;;13.59;61.99
85752;BME280;76192;39.766;2.716;2024-03-22T02:28:33;101797.73;;;13.57;62.21
85752;BME280;76192;39.766;2.716;2024-03-22T02:31:00;101796.91;;;13.54;62.35
85752;BME280;76192;39.766;2.716;2024-03-22T02:33:25;101794.92;;;13.52;62.28
85752;BME280;76192;39.766;2.716;2024-03-22T02:35:51;101794.49;;;13.50;61.92
85752;BME280;76192;39.766;2.716;2024-03-22T02:38:17;101787.89;;;13.47;61.92
85752;BME280;76192;39.766;2.716;2024-03-22T02:40:44;101784.16;;;13.45;61.97
85752;BME280;76192;39.766;2.716;2024-03-22T02:43:10;101780.05;;;13.45;61.83
85752;BME280;76192;39.766;2.716;2024-03-22T02:45:36;101777.49;;;13.45;61.88
85752;BME280;76192;39.766;2.716;2024-03-22T02:48:03;101771.64;;;13.48;61.80
85752;BME280;76192;39.766;2.716;2024-03-22T02:50:36;101767.73;;;13.53;61.59
85752;BME280;76192;39.766;2.716;2024-03-22T02:53:02;101765.91;;;13.58;61.20
85752;BME280;76192;39.766;2.716;2024-03-22T02:55:27;101763.58;;;13.63;60.82
85752;BME280;76192;39.766;2.716;2024-03-22T02:57:53;101761.93;;;13.68;60.84
85752;BME280;76192;39.766;2.716;2024-03-22T03:00:19;101759.39;;;13.73;60.64
85752;BME280;76192;39.766;2.716;2024-03-22T03:02:48;101762.08;;;13.75;60.73
85752;BME280;76192;39.766;2.716;2024-03-22T03:05:13;101762.84;;;13.77;60.85
85752;BME280;76192;39.766;2.716;2024-03-22T03:07:39;101760.06;;;13.76;61.15
85752;BME280;76192;39.766;2.716;2024-03-22T03:10:06;101753.80;;;13.74;61.17
85752;BME280;76192;39.766;2.716;2024-03-22T03:12:32;101753.09;;;13.69;61.21
85752;BME280;76192;39.766;2.716;2024-03-22T03:14:58;101758.06;;;13.66;61.47
85752;BME280;76192;39.766;2.716;2024-03-22T03:17:24;101758.64;;;13.63;61.49
85752;BME280;76192;39.766;2.716;2024-03-22T03:19:49;101755.91;;;13.60;61.75
85752;BME280;76192;39.766;2.716;2024-03-22T03:22:15;101758.17;;;13.57;62.06
85752;BME280;76192;39.766;2.716;2024-03-22T03:24:40;101754.42;;;13.54;62.01
85752;BME280;76192;39.766;2.716;2024-03-22T03:27:06;101753.05;;;13.50;62.12
85752;BME280;76192;39.766;2.716;2024-03-22T03:29:32;101750.23;;;13.44;62.06
85752;BME280;76192;39.766;2.716;2024-03-22T03:31:58;101748.19;;;13.41;61.98
85752;BME280;76192;39.766;2.716;2024-03-22T03:34:23;101745.83;;;13.38;61.99
85752;BME280;76192;39.766;2.716;2024-03-22T03:36:49;101744.86;;;13.36;62.08
85752;BME280;76192;39.766;2.716;2024-03-22T03:39:14;101740.73;;;13.35;62.01
85752;BME280;76192;39.766;2.716;2024-03-22T03:41:40;101739.11;;;13.34;62.23
85752;BME280;76192;39.766;2.716;2024-03-22T03:44:05;101742.30;;;13.32;62.34
85752;BME280;76192;39.766;2.716;2024-03-22T03:46:31;101740.12;;;13.29;62.26
85752;BME280;76192;39.766;2.716;2024-03-22T03:48:56;101744.08;;;13.26;62.38
85752;BME280;76192;39.766;2.716;2024-03-22T03:51:22;101744.08;;;13.23;62.43
85752;BME280;76192;39.766;2.716;2024-03-22T03:53:47;101738.98;;;13.20;62.63
85752;BME280;76192;39.766;2.716;2024-03-22T03:56:13;101732.36;;;13.18;62.56
85752;BME280;76192;39.766;2.716;2024-03-22T03:58:38;101729.80;;;13.15;62.46
85752;BME280;76192;39.766;2.716;2024-03-22T04:01:08;101726.91;;;13.11;62.53
85752;BME280;76192;39.766;2.716;2024-03-22T04:03:34;101717.36;;;13.09;62.84
85752;BME280;76192;39.766;2.716;2024-03-22T04:06:00;101714.02;;;13.07;62.89
85752;BME280;76192;39.766;2.716;2024-03-22T04:08:26;101707.91;;;13.04;63.06
85752;BME280;76192;39.766;2.716;2024-03-22T04:10:53;101703.84;;;13.01;63.22
85752;BME280;76192;39.766;2.716;2024-03-22T04:13:21;101703.42;;;12.99;63.33
85752;BME280;76192;39.766;2.716;2024-03-22T04:15:47;101701.63;;;12.98;63.30
85752;BME280;76192;39.766;2.716;2024-03-22T04:18:12;101698.34;;;12.97;63.34
85752;BME280;76192;39.766;2.716;2024-03-22T04:20:38;101695.90;;;12.96;63.29
85752;BME280;76192;39.766;2.716;2024-03-22T04:23:03;101698.94;;;12.95;63.20
85752;BME280;76192;39.766;2.716;2024-03-22T04:25:29;101705.87;;;12.93;63.47
85752;BME280;76192;39.766;2.716;2024-03-22T04:27:54;101703.71;;;12.91;63.66
85752;BME280;76192;39.766;2.716;2024-03-22T04:30:20;101698.73;;;12.87;63.95
85752;BME280;76192;39.766;2.716;2024-03-22T04:32:46;101696.13;;;12.83;64.00
85752;BME280;76192;39.766;2.716;2024-03-22T04:35:12;101694.86;;;12.82;64.12
85752;BME280;76192;39.766;2.716;2024-03-22T04:37:37;101698.61;;;12.81;63.99
85752;BME280;76192;39.766;2.716;2024-03-22T04:40:04;101700.29;;;12.84;63.83
85752;BME280;76192;39.766;2.716;2024-03-22T04:42:29;101706.69;;;12.89;63.95
85752;BME280;76192;39.766;2.716;2024-03-22T04:44:55;101716.08;;;12.95;64.02
85752;BME280;76192;39.766;2.716;2024-03-22T04:47:21;101720.45;;;13.01;63.81
85752;BME280;76192;39.766;2.716;2024-03-22T04:49:46;101718.45;;;13.06;63.98
85752;BME280;76192;39.766;2.716;2024-03-22T04:52:12;101718.13;;;13.11;63.79
85752;BME280;76192;39.766;2.716;2024-03-22T04:54:37;101725.45;;;13.13;63.62
85752;BME280;76192;39.766;2.716;2024-03-22T04:57:03;101726.36;;;13.14;63.60
85752;BME280;76192;39.766;2.716;2024-03-22T04:59:29;101730.63;;;13.14;63.51
85752;BME280;76192;39.766;2.716;2024-03-22T05:01:54;101731.60;;;13.13;63.45
85752;BME280;76192;39.766;2.716;2024-03-22T05:04:20;101731.55;;;13.12;63.57
85752;BME280;76192;39.766;2.716;2024-03-22T05:06:45;101735.42;;;13.10;63.71
85752;BME280;76192;39.766;2.716;2024-03-22T05:09:11;101740.00;;;13.10;63.68
85752;BME280;76192;39.766;2.716;2024-03-22T05:11:36;101744.02;;;13.08;63.61
85752;BME280;76192;39.766;2.716;2024-03-22T05:14:02;101739.28;;;13.05;63.57
85752;BME280;76192;39.766;2.716;2024-03-22T05:16:28;101742.60;;;13.02;63.69
85752;BME280;76192;39.766;2.716;2024-03-22T05:18:54;101749.67;;;13.00;63.39
85752;BME280;76192;39.766;2.716;2024-03-22T05:21:20;101753.67;;;12.98;63.56
85752;BME280;76192;39.766;2.716;2024-03-22T05:23:45;101750.31;;;12.95;63.50
85752;BME280;76192;39.766;2.716;2024-03-22T05:26:11;101750.55;;;12.93;63.59
85752;BME280;76192;39.766;2.716;2024-03-22T05:28:37;101749.60;;;12.92;63.53
85752;BME280;76192;39.766;2.716;2024-03-22T05:31:02;101752.23;;;12.89;63.50
85752;BME280;76192;39.766;2.716;2024-03-22T05:33:28;101750.38;;;12.87;63.22
85752;BME280;76192;39.766;2.716;2024-03-22T05:35:55;101749.73;;;12.84;63.24
85752;BME280;76192;39.766;2.716;2024-03-22T05:38:20;101743.95;;;12.81;63.23
85752;BME280;76192;39.766;2.716;2024-03-22T05:40:46;101740.45;;;12.79;63.38
85752;BME280;76192;39.766;2.716;2024-03-22T05:43:13;101737.34;;;12.79;63.56
85752;BME280;76192;39.766;2.716;2024-03-22T05:45:39;101742.98;;;12.79;63.77
85752;BME280;76192;39.766;2.716;2024-03-22T05:48:05;101744.70;;;12.79;64.06
85752;BME280;76192;39.766;2.716;2024-03-22T05:50:31;101744.70;;;12.79;64.06
85752;BME280;76192;39.766;2.716;2024-03-22T05:52:56;101743.67;;;12.78;64.09
85752;BME280;76192;39.766;2.716;2024-03-22T05:55:22;101745.15;;;12.77;64.02
85752;BME280;76192;39.766;2.716;2024-03-22T05:57:48;101748.11;;;12.75;63.99
85752;BME280;76192;39.766;2.716;2024-03-22T06:00:13;101745.73;;;12.72;64.17
85752;BME280;76192;39.766;2.716;2024-03-22T06:02:39;101750.44;;;12.70;64.35
85752;BME280;76192;39.766;2.716;2024-03-22T06:05:05;101745.52;;;12.68;64.17
85752;BME280;76192;39.766;2.716;2024-03-22T06:07:30;101745.40;;;12.65;64.31
85752;BME280;76192;39.766;2.716;2024-03-22T06:10:04;101737.61;;;12.63;64.11
85752;BME280;76192;39.766;2.716;2024-03-22T06:12:30;101737.39;;;12.62;64.30
85752;BME280;76192;39.766;2.716;2024-03-22T06:14:56;101734.82;;;12.62;64.32
85752;BME280;76192;39.766;2.716;2024-03-22T06:17:22;101737.46;;;12.64;64.45
85752;BME280;76192;39.766;2.716;2024-03-22T06:19:47;101739.04;;;12.68;64.64
85752;BME280;76192;39.766;2.716;2024-03-22T06:22:13;101737.98;;;12.74;64.70
85752;BME280;76192;39.766;2.716;2024-03-22T06:24:38;101736.57;;;12.84;64.62
85752;BME280;76192;39.766;2.716;2024-03-22T06:27:04;101736.70;;;12.94;64.40
85752;BME280;76192;39.766;2.716;2024-03-22T06:29:30;101736.30;;;13.07;64.52
85752;BME280;76192;39.766;2.716;2024-03-22T06:31:56;101731.19;;;13.18;64.16
85752;BME280;76192;39.766;2.716;2024-03-22T06:34:21;101731.80;;;13.31;63.98
85752;BME280;76192;39.766;2.716;2024-03-22T06:36:47;101729.55;;;13.41;63.61
85752;BME280;76192;39.766;2.716;2024-03-22T06:39:12;101729.45;;;13.51;63.55
85752;BME280;76192;39.766;2.716;2024-03-22T06:41:39;101731.34;;;13.59;63.19
85752;BME280;76192;39.766;2.716;2024-03-22T06:44:05;101734.34;;;13.65;63.05
85752;BME280;76192;39.766;2.716;2024-03-22T06:46:31;101733.14;;;13.68;62.63
85752;BME280;76192;39.766;2.716;2024-03-22T06:48:57;101735.84;;;13.71;62.48
85752;BME280;76192;39.766;2.716;2024-03-22T06:51:23;101734.63;;;13.75;62.31
85752;BME280;76192;39.766;2.716;2024-03-22T06:53:48;101739.55;;;13.77;62.24
85752;BME280;76192;39.766;2.716;2024-03-22T06:56:14;101738.85;;;13.80;62.33
85752;BME280;76192;39.766;2.716;2024-03-22T06:58:40;101739.90;;;13.85;62.49
85752;BME280;76192;39.766;2.716;2024-03-22T07:01:05;101740.30;;;13.90;62.52
85752;BME280;76192;39.766;2.716;2024-03-22T07:03:31;101739.86;;;13.96;62.39
85752;BME280;76192;39.766;2.716;2024-03-22T07:05:56;101740.02;;;14.00;61.99
85752;BME280;76192;39.766;2.716;2024-03-22T07:08:26;101737.45;;;14.04;61.75
85752;BME280;76192;39.766;2.716;2024-03-22T07:10:51;101734.85;;;14.07;61.64
85752;BME280;76192;39.766;2.716;2024-03-22T07:13:20;101731.70;;;14.10;61.56
85752;BME280;76192;39.766;2.716;2024-03-22T07:15:46;101727.23;;;14.13;61.38
85752;BME280;76192;39.766;2.716;2024-03-22T07:18:13;101733.23;;;14.17;61.18
85752;BME280;76192;39.766;2.716;2024-03-22T07:20:39;101734.46;;;14.22;61.39
85752;BME280;76192;39.766;2.716;2024-03-22T07:23:05;101730.95;;;14.28;61.24
85752;BME280;76192;39.766;2.716;2024-03-22T07:25:30;101728.44;;;14.33;61.07
85752;BME280;76192;39.766;2.716;2024-03-22T07:27:57;101730.86;;;14.38;60.94
85752;BME280;76192;39.766;2.716;2024-03-22T07:30:22;101728.69;;;14.44;60.85
85752;BME280;76192;39.766;2.716;2024-03-22T07:32:48;101730.67;;;14.50;60.76
85752;BME280;76192;39.766;2.716;2024-03-22T07:35:14;101725.08;;;14.55;60.59
85752;BME280;76192;39.766;2.716;2024-03-22T07:37:39;101728.05;;;14.60;60.31
85752;BME280;76192;39.766;2.716;2024-03-22T07:40:05;101732.21;;;14.66;60.17
85752;BME280;76192;39.766;2.716;2024-03-22T07:42:31;101734.55;;;14.72;60.20
85752;BME280;76192;39.766;2.716;2024-03-22T07:44:57;101733.75;;;14.78;60.01
85752;BME280;76192;39.766;2.716;2024-03-22T07:47:23;101731.95;;;14.85;60.00
85752;BME280;76192;39.766;2.716;2024-03-22T07:49:48;101731.86;;;14.91;59.78
85752;BME280;76192;39.766;2.716;2024-03-22T07:52:14;101734.66;;;14.97;59.48
85752;BME280;76192;39.766;2.716;2024-03-22T07:54:39;101730.05;;;15.02;59.03
85752;BME280;76192;39.766;2.716;2024-03-22T07:57:05;101733.58;;;15.08;58.86
85752;BME280;76192;39.766;2.716;2024-03-22T07:59:31;101731.73;;;15.14;58.57
85752;BME280;76192;39.766;2.716;2024-03-22T08:01:57;101732.83;;;15.20;58.09
85752;BME280;76192;39.766;2.716;2024-03-22T08:04:23;101735.99;;;15.27;57.47
85752;BME280;76192;39.766;2.716;2024-03-22T08:06:50;101731.25;;;15.33;57.27
85752;BME280;76192;39.766;2.716;2024-03-22T08:09:16;101727.73;;;15.40;57.25
85752;BME280;76192;39.766;2.716;2024-03-22T08:11:44;101726.15;;;15.48;56.96
85752;BME280;76192;39.766;2.716;2024-03-22T08:14:09;101725.09;;;15.57;56.73
85752;BME280;76192;39.766;2.716;2024-03-22T08:16:35;101725.42;;;15.65;56.40
85752;BME280;76192;39.766;2.716;2024-03-22T08:19:01;101724.56;;;15.74;56.28
85752;BME280;76192;39.766;2.716;2024-03-22T08:21:27;101720.77;;;15.84;56.07
85752;BME280;76192;39.766;2.716;2024-03-22T08:23:52;101720.09;;;15.93;55.69
85752;BME280;76192;39.766;2.716;2024-03-22T08:26:18;101725.78;;;16.04;55.72
85752;BME280;76192;39.766;2.716;2024-03-22T08:28:46;101727.05;;;16.15;55.37
85752;BME280;76192;39.766;2.716;2024-03-22T08:31:13;101724.00;;;16.27;55.10
85752;BME280;76192;39.766;2.716;2024-03-22T08:33:39;101725.56;;;16.37;54.70
85752;BME280;76192;39.766;2.716;2024-03-22T08:36:05;101724.20;;;16.48;54.56
85752;BME280;76192;39.766;2.716;2024-03-22T08:38:30;101726.67;;;16.61;54.58
85752;BME280;76192;39.766;2.716;2024-03-22T08:40:56;101723.27;;;16.73;55.09
85752;BME280;76192;39.766;2.716;2024-03-22T08:43:21;101725.39;;;16.84;55.27
85752;BME280;76192;39.766;2.716;2024-03-22T08:45:51;101726.92;;;16.94;55.53
85752;BME280;76192;39.766;2.716;2024-03-22T08:48:17;101722.92;;;17.04;55.57
85752;BME280;76192;39.766;2.716;2024-03-22T08:50:43;101718.27;;;17.15;55.60
85752;BME280;76192;39.766;2.716;2024-03-22T08:53:09;101718.91;;;17.25;55.52
85752;BME280;76192;39.766;2.716;2024-03-22T08:55:35;101718.35;;;17.35;55.59
85752;BME280;76192;39.766;2.716;2024-03-22T08:58:00;101722.62;;;17.46;55.41
85752;BME280;76192;39.766;2.716;2024-03-22T09:00:26;101719.46;;;17.56;55.13
85752;BME280;76192;39.766;2.716;2024-03-22T09:02:52;101721.29;;;17.66;54.57
85752;BME280;76192;39.766;2.716;2024-03-22T09:05:17;101718.98;;;17.75;53.98
85752;BME280;76192;39.766;2.716;2024-03-22T09:07:44;101720.65;;;17.85;53.82
85752;BME280;76192;39.766;2.716;2024-03-22T09:10:10;101719.83;;;17.93;53.58
85752;BME280;76192;39.766;2.716;2024-03-22T09:12:36;101722.65;;;18.01;53.24
85752;BME280;76192;39.766;2.716;2024-03-22T09:15:02;101716.51;;;18.10;52.84
85752;BME280;76192;39.766;2.716;2024-03-22T09:17:27;101718.46;;;18.19;52.60
85752;BME280;76192;39.766;2.716;2024-03-22T09:19:53;101720.26;;;18.28;52.39
85752;BME280;76192;39.766;2.716;2024-03-22T09:22:18;101719.45;;;18.37;51.82
85752;BME280;76192;39.766;2.716;2024-03-22T09:24:44;101721.59;;;18.47;51.14
85752;BME280;76192;39.766;2.716;2024-03-22T09:27:09;101718.71;;;18.56;50.75
85752;BME280;76192;39.766;2.716;2024-03-22T09:29:38;101717.05;;;18.66;50.29
85752;BME280;76192;39.766;2.716;2024-03-22T09:32:04;101715.27;;;18.77;49.84
85752;BME280;76192;39.766;2.716;2024-03-22T09:34:30;101715.66;;;18.86;49.65
85752;BME280;76192;39.766;2.716;2024-03-22T09:36:56;101712.79;;;18.97;48.63
85752;BME280;76192;39.766;2.716;2024-03-22T09:39:22;101712.86;;;19.08;48.44
85752;BME280;76192;39.766;2.716;2024-03-22T09:41:50;101708.42;;;19.18;50.23
85752;BME280;76192;39.766;2.716;2024-03-22T09:44:18;101713.49;;;19.29;51.79
85752;BME280;76192;39.766;2.716;2024-03-22T09:46:46;101712.86;;;19.40;52.42
85752;BME280;76192;39.766;2.716;2024-03-22T09:49:13;101708.74;;;19.50;52.56
85752;BME280;76192;39.766;2.716;2024-03-22T09:51:39;101708.10;;;19.61;52.13
85752;BME280;76192;39.766;2.716;2024-03-22T09:54:05;101702.62;;;19.70;51.08
85752;BME280;76192;39.766;2.716;2024-03-22T09:56:31;101705.42;;;19.82;50.23
85752;BME280;76192;39.766;2.716;2024-03-22T09:58:57;101704.23;;;19.92;50.28
85752;BME280;76192;39.766;2.716;2024-03-22T10:01:26;101703.58;;;20.04;50.44
85752;BME280;76192;39.766;2.716;2024-03-22T10:03:52;101703.94;;;20.14;50.69
85752;BME280;76192;39.766;2.716;2024-03-22T10:06:18;101706.22;;;20.25;50.75
85752;BME280;76192;39.766;2.716;2024-03-22T10:08:44;101707.27;;;20.36;52.11
85752;BME280;76192;39.766;2.716;2024-03-22T10:11:10;101704.84;;;20.47;52.47
85752;BME280;76192;39.766;2.716;2024-03-22T10:13:36;101696.35;;;20.56;52.08
85752;BME280;76192;39.766;2.716;2024-03-22T10:16:02;101694.08;;;20.64;52.55
85752;BME280;76192;39.766;2.716;2024-03-22T10:18:28;101697.48;;;20.73;52.40
85752;BME280;76192;39.766;2.716;2024-03-22T10:21:03;101696.77;;;20.83;52.51
85752;BME280;76192;39.766;2.716;2024-03-22T10:23:30;101693.27;;;20.92;52.57
85752;BME280;76192;39.766;2.716;2024-03-22T10:25:59;101694.27;;;21.01;52.39
85752;BME280;76192;39.766;2.716;2024-03-22T10:28:26;101688.48;;;21.10;52.39
85752;BME280;76192;39.766;2.716;2024-03-22T10:30:52;101684.77;;;21.18;52.35
85752;BME280;76192;39.766;2.716;2024-03-22T10:33:19;101685.23;;;21.27;52.13
85752;BME280;76192;39.766;2.716;2024-03-22T10:35:46;101684.84;;;21.35;52.30
85752;BME280;76192;39.766;2.716;2024-03-22T10:38:12;101684.44;;;21.43;52.18
85752;BME280;76192;39.766;2.716;2024-03-22T10:40:40;101686.27;;;21.51;51.93
85752;BME280;76192;39.766;2.716;2024-03-22T10:43:09;101681.98;;;21.57;51.87
85752;BME280;76192;39.766;2.716;2024-03-22T10:45:35;101685.17;;;21.62;51.78
85752;BME280;76192;39.766;2.716;2024-03-22T10:48:05;101676.88;;;21.65;51.68
85752;BME280;76192;39.766;2.716;2024-03-22T10:50:33;101681.27;;;21.71;51.80
85752;BME280;76192;39.766;2.716;2024-03-22T10:53:04;101675.23;;;21.75;51.73
85752;BME280;76192;39.766;2.716;2024-03-22T10:55:37;101672.88;;;21.81;51.50
85752;BME280;76192;39.766;2.716;2024-03-22T10:58:03;101668.06;;;21.85;51.41
85752;BME280;76192;39.766;2.716;2024-03-22T11:00:34;101666.35;;;21.90;51.74
85752;BME280;76192;39.766;2.716;2024-03-22T11:03:04;101661.73;;;21.95;51.59
85752;BME280;76192;39.766;2.716;2024-03-22T11:05:30;101660.92;;;22.02;51.61
85752;BME280;76192;39.766;2.716;2024-03-22T11:08:03;101658.21;;;22.09;51.42
85752;BME280;76192;39.766;2.716;2024-03-22T11:10:35;101656.72;;;22.16;51.27
85752;BME280;76192;39.766;2.716;2024-03-22T11:13:05;101652.12;;;22.23;51.41
85752;BME280;76192;39.766;2.716;2024-03-22T11:15:32;101648.52;;;22.31;51.05
85752;BME280;76192;39.766;2.716;2024-03-22T11:17:58;101646.67;;;22.39;50.93
85752;BME280;76192;39.766;2.716;2024-03-22T11:20:25;101642.56;;;22.47;50.86
85752;BME280;76192;39.766;2.716;2024-03-22T11:22:51;101640.00;;;22.55;50.55
85752;BME280;76192;39.766;2.716;2024-03-22T11:25:17;101637.97;;;22.64;50.17
85752;BME280;76192;39.766;2.716;2024-03-22T11:27:44;101637.85;;;22.71;49.26
85752;BME280;76192;39.766;2.716;2024-03-22T11:30:10;101637.55;;;22.80;48.99
85752;BME280;76192;39.766;2.716;2024-03-22T11:32:36;101631.01;;;22.90;48.59
85752;BME280;76192;39.766;2.716;2024-03-22T11:35:09;101628.64;;;23.02;48.15
85752;BME280;76192;39.766;2.716;2024-03-22T11:37:35;101630.62;;;23.15;47.40
85752;BME280;76192;39.766;2.716;2024-03-22T11:40:01;101627.53;;;23.27;47.30
85752;BME280;76192;39.766;2.716;2024-03-22T11:42:31;101626.19;;;23.42;47.06
85752;BME280;76192;39.766;2.716;2024-03-22T11:44:58;101618.04;;;23.57;46.91
85752;BME280;76192;39.766;2.716;2024-03-22T11:47:23;101615.64;;;23.72;46.62
85752;BME280;76192;39.766;2.716;2024-03-22T11:49:49;101614.98;;;23.88;46.28
85752;BME280;76192;39.766;2.716;2024-03-22T11:52:15;101618.98;;;24.07;45.87
85752;BME280;76192;39.766;2.716;2024-03-22T11:54:41;101616.55;;;24.20;45.58
85752;BME280;76192;39.766;2.716;2024-03-22T11:57:08;101621.05;;;24.36;45.15
85752;BME280;76192;39.766;2.716;2024-03-22T11:59:35;101618.09;;;24.52;44.86
85752;BME280;76192;39.766;2.716;2024-03-22T12:02:00;101617.70;;;24.71;44.37
85752;BME280;76192;39.766;2.716;2024-03-22T12:04:26;101612.23;;;24.89;43.57
85752;BME280;76192;39.766;2.716;2024-03-22T12:06:51;101607.10;;;25.10;43.20
85752;BME280;76192;39.766;2.716;2024-03-22T12:09:18;101602.98;;;25.34;42.34
85752;BME280;76192;39.766;2.716;2024-03-22T12:11:44;101603.02;;;25.59;41.75
85752;BME280;76192;39.766;2.716;2024-03-22T12:14:09;101599.33;;;25.86;41.05
85752;BME280;76192;39.766;2.716;2024-03-22T12:16:35;101597.53;;;26.14;40.11
85752;BME280;76192;39.766;2.716;2024-03-22T12:19:01;101594.95;;;26.46;39.37
85752;BME280;76192;39.766;2.716;2024-03-22T12:21:28;101590.41;;;26.78;38.43
85752;BME280;76192;39.766;2.716;2024-03-22T12:23:53;101586.66;;;27.12;37.73
85752;BME280;76192;39.766;2.716;2024-03-22T12:26:19;101580.73;;;27.48;37.43
85752;BME280;76192;39.766;2.716;2024-03-22T12:28:45;101579.83;;;27.84;36.25
85752;BME280;76192;39.766;2.716;2024-03-22T12:31:10;101575.98;;;28.24;35.99
85752;BME280;76192;39.766;2.716;2024-03-22T12:33:36;101579.76;;;28.66;35.29
85752;BME280;76192;39.766;2.716;2024-03-22T12:36:03;101573.91;;;29.11;34.55
85752;BME280;76192;39.766;2.716;2024-03-22T12:38:29;101568.27;;;29.58;33.83
85752;BME280;76192;39.766;2.716;2024-03-22T12:40:55;101569.33;;;30.07;33.39
85752;BME280;76192;39.766;2.716;2024-03-22T12:43:21;101572.48;;;30.60;32.56